Time;durP1;ratioP1;P1;durP2;ratioP2;P2;SDS_P1;SDS_P2;PMS_P1;PMS_P2;Temp;Humidity;BMP_temperature;BMP_pressure;BME280_temperature;BME280_humidity;BME280_pressure;Samples;Min_cycle;Max_cycle;Signal;HPM_P1;HPM_P2
2023/07/10 00:01:05;;;;;;;42.00;26.67;;;;;;;;;;5023842;28;20033;-67
2023/07/10 00:03:31;;;;;;;43.03;27.08;;;;;;;;;;5023933;28;20560;-67
2023/07/10 00:05:57;;;;;;;47.88;27.88;;;;;;;;;;5022931;28;20418;-66
2023/07/10 00:08:22;;;;;;;46.70;27.83;;;;;;;;;;5018603;28;20021;-67
2023/07/10 00:10:48;;;;;;;45.95;29.92;;;;;;;;;;5021493;28;20049;-68
2023/07/10 00:13:13;;;;;;;46.50;28.27;;;;;;;;;;5027846;28;20017;-67
2023/07/10 00:15:39;;;;;;;47.28;28.45;;;;;;;;;;5019747;28;20034;-68
2023/07/10 00:18:10;;;;;;;48.53;28.50;;;;;;;;;;5022646;28;20395;-66
2023/07/10 00:20:35;;;;;;;49.97;31.27;;;;;;;;;;5020859;28;20021;-67
2023/07/10 00:23:00;;;;;;;53.30;32.90;;;;;;;;;;5025290;28;20071;-67
2023/07/10 00:25:26;;;;;;;62.47;35.78;;;;;;;;;;5023436;28;20391;-67
2023/07/10 00:27:52;;;;;;;60.13;36.42;;;;;;;;;;5018266;28;20053;-68
2023/07/10 00:30:21;;;;;;;66.85;35.95;;;;;;;;;;5019283;28;20758;-67
2023/07/10 00:32:52;;;;;;;83.55;43.08;;;;;;;;;;5021394;28;20490;-67
2023/07/10 00:35:18;;;;;;;80.13;45.40;;;;;;;;;;5013102;28;20109;-67
2023/07/10 00:38:12;;;;;;;83.50;48.13;;;;;;;;;;5016164;28;20167;-68
2023/07/10 00:40:37;;;;;;;82.60;46.30;;;;;;;;;;5020725;28;20029;-68
2023/07/10 00:43:02;;;;;;;89.93;47.03;;;;;;;;;;5021679;28;20017;-68
2023/07/10 00:45:27;;;;;;;97.68;47.50;;;;;;;;;;5022052;28;20025;-68
2023/07/10 00:47:59;;;;;;;88.28;45.78;;;;;;;;;;5020279;28;20029;-68
2023/07/10 00:50:28;;;;;;;80.65;44.80;;;;;;;;;;5013511;28;20398;-68
2023/07/10 00:52:54;;;;;;;88.38;44.20;;;;;;;;;;5019149;28;20036;-68
2023/07/10 00:55:20;;;;;;;89.25;45.25;;;;;;;;;;5026319;28;20018;-68
2023/07/10 00:57:47;;;;;;;90.63;46.05;;;;;;;;;;5015012;28;20026;-68
2023/07/10 01:03:15;;;;;;;96.75;46.53;;;;;;;;;;5023239;28;20076;-68
2023/07/10 01:05:40;;;;;;;83.95;44.70;;;;;;;;;;5026576;28;20033;-68
2023/07/10 01:08:05;;;;;;;89.03;46.85;;;;;;;;;;5033101;28;20013;-68
2023/07/10 01:10:30;;;;;;;87.40;46.30;;;;;;;;;;5029786;28;20448;-67
2023/07/10 01:12:55;;;;;;;87.80;47.35;;;;;;;;;;5021187;28;20022;-67
2023/07/10 01:15:21;;;;;;;93.35;48.90;;;;;;;;;;5025605;28;20112;-68
2023/07/10 01:17:47;;;;;;;89.25;46.40;;;;;;;;;;5027732;28;20100;-68
2023/07/10 01:20:21;;;;;;;88.00;47.67;;;;;;;;;;5025147;28;20022;-67
2023/07/10 01:22:46;;;;;;;91.50;47.40;;;;;;;;;;5026302;28;20030;-68
2023/07/10 01:25:11;;;;;;;98.57;50.00;;;;;;;;;;5029202;28;20083;-68
2023/07/10 01:27:37;;;;;;;104.57;51.03;;;;;;;;;;5024341;28;20028;-67
2023/07/10 01:30:04;;;;;;;99.10;50.90;;;;;;;;;;5029571;28;20053;-67
2023/07/10 01:32:29;;;;;;;105.07;52.30;;;;;;;;;;5022498;28;20381;-67
2023/07/10 01:34:57;;;;;;;109.43;52.08;;;;;;;;;;5019907;28;20022;-67
2023/07/10 01:37:23;;;;;;;100.20;52.58;;;;;;;;;;5020561;28;20054;-67
2023/07/10 01:39:50;;;;;;;112.93;53.50;;;;;;;;;;5021332;28;20407;-67
2023/07/10 01:42:15;;;;;;;114.57;55.75;;;;;;;;;;5028231;28;20473;-67
2023/07/10 01:44:42;;;;;;;108.80;54.25;;;;;;;;;;5029106;28;20029;-67
2023/07/10 01:47:09;;;;;;;116.47;56.38;;;;;;;;;;5026343;28;20026;-68
2023/07/10 01:49:38;;;;;;;105.85;54.65;;;;;;;;;;5025851;28;20022;-67
2023/07/10 01:52:05;;;;;;;109.10;55.35;;;;;;;;;;5024474;28;20389;-68
2023/07/10 01:54:31;;;;;;;107.63;55.17;;;;;;;;;;5023177;28;20037;-68
2023/07/10 01:56:56;;;;;;;110.95;56.08;;;;;;;;;;5027690;28;20048;-67
2023/07/10 01:59:21;;;;;;;114.15;56.28;;;;;;;;;;5023854;28;20999;-67
2023/07/10 02:01:47;;;;;;;117.55;56.75;;;;;;;;;;5025679;28;20033;-67
2023/07/10 02:04:12;;;;;;;113.07;56.03;;;;;;;;;;5030444;28;20049;-67
2023/07/10 02:06:38;;;;;;;116.88;59.53;;;;;;;;;;5018576;28;20470;-66
2023/07/10 02:09:04;;;;;;;113.70;56.33;;;;;;;;;;5025081;28;20032;-67
2023/07/10 02:11:29;;;;;;;110.70;54.65;;;;;;;;;;5023357;28;20017;-66
2023/07/10 02:13:54;;;;;;;108.93;55.25;;;;;;;;;;5023551;28;20068;-66
2023/07/10 02:16:20;;;;;;;107.45;54.58;;;;;;;;;;5028259;28;20108;-66
2023/07/10 02:18:45;;;;;;;99.68;53.03;;;;;;;;;;5019826;28;20666;-66
2023/07/10 02:21:10;;;;;;;99.90;52.78;;;;;;;;;;5019553;28;20022;-67
2023/07/10 02:23:37;;;;;;;94.55;50.88;;;;;;;;;;5025433;28;20470;-67
2023/07/10 02:26:02;;;;;;;103.03;50.83;;;;;;;;;;5025906;28;20032;-67
2023/07/10 02:28:27;;;;;;;94.65;49.72;;;;;;;;;;5022328;28;20458;-68
2023/07/10 02:30:53;;;;;;;92.32;49.33;;;;;;;;;;5024964;28;20033;-68
2023/07/10 02:33:19;;;;;;;95.50;48.25;;;;;;;;;;5025240;28;20022;-67
2023/07/10 02:35:44;;;;;;;90.57;47.00;;;;;;;;;;5020615;28;20462;-68
2023/07/10 02:38:12;;;;;;;90.80;47.15;;;;;;;;;;5018427;28;20101;-69
2023/07/10 02:40:38;;;;;;;85.78;46.25;;;;;;;;;;5023889;28;20033;-68
2023/07/10 02:43:03;;;;;;;89.38;45.60;;;;;;;;;;5022795;28;20040;-68
2023/07/10 02:45:29;;;;;;;82.25;45.58;;;;;;;;;;5025098;28;20025;-68
2023/07/10 02:47:54;;;;;;;72.40;42.65;;;;;;;;;;5026171;28;20029;-69
2023/07/10 02:50:19;;;;;;;79.32;43.28;;;;;;;;;;5020214;28;20469;-69
2023/07/10 02:52:44;;;;;;;72.53;40.72;;;;;;;;;;5015714;28;20385;-68
2023/07/10 02:55:13;;;;;;;79.00;43.28;;;;;;;;;;5022487;28;20026;-69
2023/07/10 02:57:41;;;;;;;72.90;40.58;;;;;;;;;;5025189;28;20055;-68
2023/07/10 03:00:07;;;;;;;62.30;37.45;;;;;;;;;;5022469;28;20563;-69
2023/07/10 03:02:32;;;;;;;72.22;39.35;;;;;;;;;;5028701;28;20033;-68
2023/07/10 03:04:57;;;;;;;73.43;39.97;;;;;;;;;;5019325;28;20108;-68
2023/07/10 03:07:22;;;;;;;69.00;38.00;;;;;;;;;;5020185;28;20025;-68
2023/07/10 03:09:49;;;;;;;68.22;38.95;;;;;;;;;;5027525;28;20025;-69
2023/07/10 03:12:14;;;;;;;70.05;38.13;;;;;;;;;;5015782;28;20029;-68
2023/07/10 03:14:52;;;;;;;62.33;37.80;;;;;;;;;;5023297;28;20025;-68
2023/07/10 03:17:18;;;;;;;67.38;38.60;;;;;;;;;;5021101;28;20022;-68
2023/07/10 03:19:44;;;;;;;68.32;36.25;;;;;;;;;;5019782;28;20026;-68
2023/07/10 03:22:09;;;;;;;63.83;36.42;;;;;;;;;;5023559;28;20366;-69
2023/07/10 03:24:34;;;;;;;67.22;36.70;;;;;;;;;;5016261;28;20029;-69
2023/07/10 03:27:00;;;;;;;66.50;36.85;;;;;;;;;;5015123;28;20033;-69
2023/07/10 03:29:25;;;;;;;69.30;38.10;;;;;;;;;;5022462;28;20022;-69
2023/07/10 03:31:51;;;;;;;68.80;37.58;;;;;;;;;;5015866;28;20022;-68
2023/07/10 03:34:17;;;;;;;75.93;38.63;;;;;;;;;;5023156;28;20080;-67
2023/07/10 03:36:42;;;;;;;69.63;39.08;;;;;;;;;;5021304;28;20486;-68
2023/07/10 03:39:08;;;;;;;75.18;37.92;;;;;;;;;;5024023;28;20087;-68
2023/07/10 03:41:34;;;;;;;69.00;37.90;;;;;;;;;;5027129;28;20432;-67
2023/07/10 03:43:59;;;;;;;72.78;37.78;;;;;;;;;;5019527;28;20021;-68
2023/07/10 03:46:24;;;;;;;72.80;38.47;;;;;;;;;;5027864;28;20104;-68
2023/07/10 03:48:51;;;;;;;69.90;33.95;;;;;;;;;;5019778;28;20021;-68
2023/07/10 03:51:17;;;;;;;59.72;31.77;;;;;;;;;;5013480;28;20017;-68
2023/07/10 03:53:42;;;;;;;61.40;30.50;;;;;;;;;;5014085;28;20470;-68
2023/07/10 03:56:08;;;;;;;51.28;27.45;;;;;;;;;;5017434;28;20060;-68
2023/07/10 03:58:34;;;;;;;47.17;24.98;;;;;;;;;;5013637;28;20014;-69
2023/07/10 04:01:00;;;;;;;47.78;24.15;;;;;;;;;;5019123;28;20119;-68
2023/07/10 04:03:26;;;;;;;42.17;22.90;;;;;;;;;;5022690;28;20017;-69
2023/07/10 04:05:52;;;;;;;41.40;21.80;;;;;;;;;;5029049;28;20033;-68
2023/07/10 04:08:34;;;;;;;41.20;21.52;;;;;;;;;;5018477;28;20545;-69
2023/07/10 04:10:59;;;;;;;;;;;;;;;;;;5015837;28;20043;-68
2023/07/10 04:13:25;;;;;;;42.03;19.55;;;;;;;;;;5020330;28;19913;-68
2023/07/10 04:16:13;;;;;;;35.70;18.52;;;;;;;;;;5017884;28;20496;-68
2023/07/10 04:18:39;;;;;;;38.75;18.20;;;;;;;;;;4959827;28;20523;-69
2023/07/10 04:21:06;;;;;;;32.28;17.42;;;;;;;;;;4952114;28;20082;-69
2023/07/10 04:23:31;;;;;;;32.63;16.73;;;;;;;;;;4952605;28;20027;-69
2023/07/10 04:25:56;;;;;;;31.10;17.23;;;;;;;;;;4954455;28;20069;-69
2023/07/10 04:28:22;;;;;;;33.17;17.25;;;;;;;;;;4962467;28;20019;-69
2023/07/10 04:30:48;;;;;;;34.00;17.20;;;;;;;;;;4959158;28;20081;-69
2023/07/10 04:33:14;;;;;;;37.22;18.17;;;;;;;;;;4959831;28;20491;-69
2023/07/10 04:35:40;;;;;;;40.33;18.25;;;;;;;;;;4959874;28;20031;-69
2023/07/10 04:38:06;;;;;;;35.05;17.30;;;;;;;;;;4953492;28;20837;-69
2023/07/10 04:40:31;;;;;;;40.35;17.75;;;;;;;;;;4945679;28;20738;-69
2023/07/10 04:42:57;;;;;;;39.03;17.73;;;;;;;;;;4962167;28;20066;-68
2023/07/10 04:45:22;;;;;;;34.33;16.90;;;;;;;;;;4961764;28;20022;-68
2023/07/10 04:47:48;;;;;;;35.40;16.10;;;;;;;;;;4965483;28;20042;-67
2023/07/10 04:50:13;;;;;;;32.45;15.25;;;;;;;;;;4961068;28;20147;-67
2023/07/10 04:52:38;;;;;;;32.78;13.57;;;;;;;;;;4967825;28;20042;-68
2023/07/10 04:55:03;;;;;;;28.50;13.70;;;;;;;;;;4985442;28;20461;-67
2023/07/10 04:57:29;;;;;;;30.30;13.52;;;;;;;;;;5024418;28;20489;-68
2023/07/10 04:59:54;;;;;;;29.30;14.85;;;;;;;;;;5023596;28;20380;-68
2023/07/10 05:02:19;;;;;;;31.95;15.13;;;;;;;;;;5030912;28;20500;-67
2023/07/10 05:04:44;;;;;;;34.58;15.05;;;;;;;;;;5021772;28;20049;-67
2023/07/10 05:07:10;;;;;;;30.48;14.80;;;;;;;;;;5030533;28;20024;-68
2023/07/10 05:09:35;;;;;;;29.50;14.32;;;;;;;;;;5023484;28;20018;-67
2023/07/10 05:12:00;;;;;;;29.85;14.82;;;;;;;;;;5035959;28;20413;-67
2023/07/10 05:14:26;;;;;;;29.88;14.60;;;;;;;;;;5019538;28;20014;-67
2023/07/10 05:16:51;;;;;;;27.33;13.90;;;;;;;;;;5032254;28;20462;-67
2023/07/10 05:19:16;;;;;;;31.13;14.32;;;;;;;;;;5019737;28;20234;-67
2023/07/10 05:21:42;;;;;;;29.50;13.80;;;;;;;;;;5020342;28;20014;-67
2023/07/10 05:24:07;;;;;;;17.60;10.27;;;;;;;;;;5021246;28;20493;-67
2023/07/10 05:26:33;;;;;;;19.83;10.38;;;;;;;;;;5025525;28;20025;-67
2023/07/10 05:28:58;;;;;;;22.75;10.35;;;;;;;;;;5022943;28;20037;-67
2023/07/10 05:31:23;;;;;;;18.50;9.85;;;;;;;;;;5029936;28;20018;-68
2023/07/10 05:33:49;;;;;;;21.65;9.82;;;;;;;;;;5037166;28;20021;-67
2023/07/10 05:36:16;;;;;;;18.08;9.68;;;;;;;;;;5025286;28;20029;-68
2023/07/10 05:38:41;;;;;;;16.50;9.02;;;;;;;;;;5019466;28;20109;-67
2023/07/10 05:41:07;;;;;;;17.83;10.10;;;;;;;;;;5019096;28;20736;-68
2023/07/10 05:43:33;;;;;;;16.50;8.95;;;;;;;;;;5018713;28;20073;-67
2023/07/10 05:45:58;;;;;;;17.40;9.32;;;;;;;;;;5030926;28;20025;-68
2023/07/10 05:48:23;;;;;;;14.95;9.20;;;;;;;;;;5024223;28;20029;-67
2023/07/10 05:50:50;;;;;;;15.57;8.40;;;;;;;;;;5016255;28;20093;-67
2023/07/10 05:53:16;;;;;;;13.10;7.78;;;;;;;;;;5015614;28;20021;-67
2023/07/10 05:55:49;;;;;;;15.82;8.80;;;;;;;;;;5023419;28;20390;-68
2023/07/10 05:58:14;;;;;;;15.88;8.38;;;;;;;;;;5023575;28;20021;-68
2023/07/10 06:00:40;;;;;;;16.38;8.32;;;;;;;;;;5023991;28;20422;-67
2023/07/10 06:03:05;;;;;;;12.73;7.90;;;;;;;;;;5020828;28;20026;-67
2023/07/10 06:05:31;;;;;;;11.55;7.30;;;;;;;;;;5016616;28;20083;-68
2023/07/10 06:07:56;;;;;;;16.17;6.90;;;;;;;;;;5018863;28;20040;-68
2023/07/10 06:10:21;;;;;;;13.63;6.97;;;;;;;;;;5016636;28;20017;-68
2023/07/10 06:12:46;;;;;;;15.25;7.50;;;;;;;;;;5016516;28;20026;-68
2023/07/10 06:15:12;;;;;;;16.58;7.93;;;;;;;;;;5018374;28;20084;-68
2023/07/10 06:17:37;;;;;;;14.65;7.90;;;;;;;;;;5016165;28;20021;-69
2023/07/10 06:20:02;;;;;;;15.77;8.05;;;;;;;;;;5020728;28;20021;-68
2023/07/10 06:22:28;;;;;;;16.30;8.23;;;;;;;;;;5034090;28;20025;-69
2023/07/10 06:24:53;;;;;;;17.67;8.93;;;;;;;;;;5024522;28;20495;-68
2023/07/10 06:27:18;;;;;;;17.17;8.15;;;;;;;;;;5018606;28;20018;-68
2023/07/10 06:29:44;;;;;;;15.45;8.02;;;;;;;;;;5019134;28;20367;-68
2023/07/10 06:32:09;;;;;;;15.07;7.30;;;;;;;;;;5030220;28;20539;-68
2023/07/10 06:34:34;;;;;;;16.55;8.70;;;;;;;;;;5021628;28;20014;-69
2023/07/10 06:36:59;;;;;;;15.77;8.15;;;;;;;;;;5017014;28;20025;-69
2023/07/10 06:39:27;;;;;;;12.32;7.22;;;;;;;;;;5016806;28;20039;-69
2023/07/10 06:41:53;;;;;;;15.50;7.60;;;;;;;;;;5026046;28;20022;-68
2023/07/10 06:44:19;;;;;;;12.98;8.10;;;;;;;;;;5032160;28;20100;-68
2023/07/10 06:46:44;;;;;;;13.15;6.88;;;;;;;;;;5027654;28;20104;-68
2023/07/10 06:49:09;;;;;;;12.65;6.50;;;;;;;;;;5020313;28;20426;-69
2023/07/10 06:51:37;;;;;;;11.40;6.43;;;;;;;;;;5021189;28;20037;-69
2023/07/10 06:54:03;;;;;;;11.40;6.43;;;;;;;;;;5017197;28;20513;-68
2023/07/10 06:56:31;;;;;;;8.48;5.55;;;;;;;;;;5013278;28;20021;-67
2023/07/10 06:58:57;;;;;;;10.45;5.50;;;;;;;;;;5014436;28;20599;-68
2023/07/10 07:01:22;;;;;;;11.82;4.88;;;;;;;;;;5024682;28;20100;-64
2023/07/10 07:03:47;;;;;;;7.05;3.55;;;;;;;;;;5017688;28;20410;-64
2023/07/10 07:06:12;;;;;;;7.30;3.42;;;;;;;;;;5014150;28;20026;-62
2023/07/10 07:08:38;;;;;;;5.00;2.97;;;;;;;;;;5014459;28;20010;-62
2023/07/10 07:11:04;;;;;;;6.95;3.05;;;;;;;;;;5020514;28;20033;-63
2023/07/10 07:13:29;;;;;;;8.25;3.50;;;;;;;;;;5019419;28;20022;-63
2023/07/10 07:15:55;;;;;;;8.77;3.13;;;;;;;;;;5019627;28;20033;-62
2023/07/10 07:18:21;;;;;;;5.85;3.10;;;;;;;;;;5022664;28;20564;-62
2023/07/10 07:20:46;;;;;;;5.75;2.97;;;;;;;;;;5027952;28;20090;-62
2023/07/10 07:23:11;;;;;;;6.65;3.20;;;;;;;;;;5014002;28;20018;-64
2023/07/10 07:25:39;;;;;;;6.30;2.92;;;;;;;;;;5023615;28;20036;-63
2023/07/10 07:28:04;;;;;;;6.85;2.70;;;;;;;;;;5021047;28;20026;-64
2023/07/10 07:30:30;;;;;;;7.40;2.90;;;;;;;;;;5018416;28;20024;-63
2023/07/10 07:32:56;;;;;;;5.32;2.53;;;;;;;;;;5031537;28;20358;-62
2023/07/10 07:35:21;;;;;;;4.82;2.20;;;;;;;;;;5031773;28;20067;-62
2023/07/10 07:37:47;;;;;;;4.55;1.85;;;;;;;;;;5015998;28;20087;-63
2023/07/10 07:40:12;;;;;;;5.97;2.00;;;;;;;;;;5013849;28;20021;-64
2023/07/10 07:42:38;;;;;;;3.63;1.58;;;;;;;;;;5017284;28;20498;-64
2023/07/10 07:45:03;;;;;;;6.75;2.10;;;;;;;;;;5014410;28;20026;-64
2023/07/10 07:47:29;;;;;;;4.18;1.63;;;;;;;;;;5016408;28;20045;-64
2023/07/10 07:49:55;;;;;;;5.72;2.17;;;;;;;;;;5015490;28;20030;-65
2023/07/10 07:52:20;;;;;;;4.88;1.98;;;;;;;;;;5016253;28;20025;-64
2023/07/10 07:54:46;;;;;;;3.25;1.52;;;;;;;;;;5019381;28;20446;-63
2023/07/10 07:57:11;;;;;;;5.55;1.75;;;;;;;;;;5029772;28;20389;-64
2023/07/10 07:59:36;;;;;;;5.63;2.10;;;;;;;;;;5031785;28;20465;-64
2023/07/10 08:02:01;;;;;;;4.97;2.20;;;;;;;;;;5024203;28;20029;-63
2023/07/10 08:04:27;;;;;;;4.00;2.00;;;;;;;;;;5018903;28;20119;-66
2023/07/10 08:06:53;;;;;;;4.80;2.20;;;;;;;;;;5014116;28;20129;-67
2023/07/10 08:09:19;;;;;;;5.53;2.40;;;;;;;;;;5031756;28;20113;-67
2023/07/10 08:11:44;;;;;;;7.18;2.50;;;;;;;;;;5016127;28;20462;-67
2023/07/10 08:14:09;;;;;;;4.57;2.10;;;;;;;;;;5017753;28;20478;-66
2023/07/10 08:16:35;;;;;;;4.95;1.83;;;;;;;;;;5024043;28;20052;-67
2023/07/10 08:19:00;;;;;;;4.45;2.22;;;;;;;;;;5030467;28;20104;-65
2023/07/10 08:21:25;;;;;;;5.13;1.88;;;;;;;;;;5032336;28;20016;-66
2023/07/10 08:23:50;;;;;;;4.65;1.83;;;;;;;;;;5019389;28;20018;-67
2023/07/10 08:26:16;;;;;;;5.38;1.90;;;;;;;;;;5014015;28;20037;-66
2023/07/10 08:28:41;;;;;;;4.15;1.73;;;;;;;;;;5016509;28;20009;-65
2023/07/10 08:31:06;;;;;;;4.18;1.70;;;;;;;;;;5026259;28;20013;-65
2023/07/10 08:33:32;;;;;;;3.92;1.45;;;;;;;;;;5026372;28;20052;-65
2023/07/10 08:36:02;;;;;;;4.72;1.85;;;;;;;;;;5014407;28;20489;-66
2023/07/10 08:38:27;;;;;;;3.65;1.70;;;;;;;;;;5012880;28;20470;-66
2023/07/10 08:40:57;;;;;;;4.60;1.80;;;;;;;;;;5016444;28;20026;-65
2023/07/10 08:43:26;;;;;;;5.32;2.00;;;;;;;;;;5015136;28;20022;-65
2023/07/10 08:45:53;;;;;;;4.75;1.73;;;;;;;;;;5024832;28;20032;-66
2023/07/10 08:48:29;;;;;;;5.32;1.60;;;;;;;;;;5030223;28;20032;-66
2023/07/10 08:50:57;;;;;;;3.85;1.80;;;;;;;;;;5029446;28;20109;-66
2023/07/10 08:53:24;;;;;;;5.60;1.70;;;;;;;;;;5035132;28;20021;-66
2023/07/10 08:55:52;;;;;;;4.70;1.98;;;;;;;;;;5032348;28;20041;-67
2023/07/10 08:58:22;;;;;;;5.13;1.92;;;;;;;;;;5031366;28;20091;-66
2023/07/10 09:00:49;;;;;;;5.80;2.03;;;;;;;;;;5029459;28;20021;-66
2023/07/10 09:03:20;;;;;;;4.15;1.75;;;;;;;;;;5032130;28;20075;-66
2023/07/10 09:05:49;;;;;;;4.55;1.58;;;;;;;;;;4993809;28;20035;-66
2023/07/10 09:08:14;;;;;;;3.72;1.52;;;;;;;;;;4993041;28;20027;-66
2023/07/10 09:10:45;;;;;;;6.38;1.80;;;;;;;;;;4993996;28;20040;-65
2023/07/10 09:13:17;;;;;;;4.13;1.42;;;;;;;;;;4991101;28;20019;-66
2023/07/10 09:15:48;;;;;;;3.72;1.63;;;;;;;;;;4991381;28;20026;-65
2023/07/10 09:18:19;;;;;;;6.50;1.55;;;;;;;;;;4993948;28;20026;-65
2023/07/10 09:20:45;;;;;;;4.05;1.55;;;;;;;;;;4993752;28;20026;-65
2023/07/10 09:23:16;;;;;;;4.15;1.40;;;;;;;;;;4990230;28;20019;-65
2023/07/10 09:25:41;;;;;;;4.32;1.50;;;;;;;;;;4995739;28;20432;-61
2023/07/10 09:28:07;;;;;;;4.72;1.60;;;;;;;;;;4997490;28;20104;-60
2023/07/10 09:30:32;;;;;;;3.50;1.40;;;;;;;;;;4995975;28;20490;-61
2023/07/10 09:33:04;;;;;;;4.72;1.60;;;;;;;;;;4996576;28;20113;-61
2023/07/10 09:35:30;;;;;;;6.28;1.88;;;;;;;;;;4996192;28;20026;-61
2023/07/10 09:37:55;;;;;;;2.83;1.45;;;;;;;;;;4996954;28;20027;-60
2023/07/10 09:40:34;;;;;;;7.18;1.63;;;;;;;;;;4995830;28;20026;-61
2023/07/10 09:43:11;;;;;;;4.78;1.58;;;;;;;;;;4996348;28;20034;-60
2023/07/10 09:45:38;;;;;;;4.40;1.80;;;;;;;;;;4991021;28;20386;-61
2023/07/10 09:48:11;;;;;;;6.60;1.73;;;;;;;;;;4995994;28;20116;-60
2023/07/10 09:50:36;;;;;;;4.70;1.60;;;;;;;;;;4996640;28;20026;-61
2023/07/10 09:53:02;;;;;;;5.03;1.75;;;;;;;;;;4995339;28;20101;-61
2023/07/10 09:55:27;;;;;;;5.10;1.55;;;;;;;;;;4994284;28;20029;-62
2023/07/10 09:58:02;;;;;;;5.40;1.80;;;;;;;;;;4996658;28;20093;-61
2023/07/10 10:00:30;;;;;;;7.13;1.95;;;;;;;;;;4994113;28;20434;-65
2023/07/10 10:03:07;;;;;;;4.47;1.65;;;;;;;;;;4984834;28;20030;-62
2023/07/10 10:05:32;;;;;;;4.25;1.58;;;;;;;;;;5029531;28;20042;-60
2023/07/10 10:08:02;;;;;;;3.85;1.20;;;;;;;;;;5018866;28;20087;-62
2023/07/10 10:10:27;;;;;;;4.50;1.45;;;;;;;;;;5034413;28;20571;-60
2023/07/10 10:12:52;;;;;;;3.20;1.30;;;;;;;;;;5034442;28;20021;-60
2023/07/10 10:15:23;;;;;;;6.03;1.70;;;;;;;;;;5033306;28;20293;-60
2023/07/10 10:17:49;;;;;;;5.05;1.38;;;;;;;;;;5033567;28;20036;-60
2023/07/10 10:20:17;;;;;;;5.28;1.48;;;;;;;;;;5018509;28;20029;-60
2023/07/10 10:22:42;;;;;;;4.85;1.85;;;;;;;;;;5030828;28;20040;-60
2023/07/10 10:25:19;;;;;;;3.30;1.13;;;;;;;;;;5035396;28;20029;-60
2023/07/10 10:27:57;;;;;;;4.75;1.55;;;;;;;;;;5034695;28;20018;-60
2023/07/10 10:30:28;;;;;;;4.85;1.73;;;;;;;;;;5018642;28;20021;-60
2023/07/10 10:33:20;;;;;;;5.05;1.55;;;;;;;;;;5032208;28;20041;-61
2023/07/10 10:35:51;;;;;;;5.18;1.55;;;;;;;;;;5012736;28;20462;-60
2023/07/10 10:38:16;;;;;;;;;;;;;;;;;;5018581;28;20112;-60
2023/07/10 10:41:00;;;;;;;4.73;1.53;;;;;;;;;;5030267;28;20015;-61
2023/07/10 10:43:38;;;;;;;4.35;1.58;;;;;;;;;;5035115;28;20257;-61
2023/07/10 10:46:16;;;;;;;4.28;1.50;;;;;;;;;;5032743;28;20025;-60
2023/07/10 10:49:00;;;;;;;4.95;1.30;;;;;;;;;;5034350;28;20087;-61
2023/07/10 10:51:28;;;;;;;5.65;1.40;;;;;;;;;;5031703;28;20021;-62
2023/07/10 10:53:59;;;;;;;3.28;1.40;;;;;;;;;;5035231;28;20028;-62
2023/07/10 10:56:28;;;;;;;5.13;1.00;;;;;;;;;;5033882;28;20025;-61
2023/07/10 10:58:54;;;;;;;2.53;1.10;;;;;;;;;;5033010;28;20026;-61
2023/07/10 11:01:25;;;;;;;5.00;1.00;;;;;;;;;;5030036;28;20036;-60
2023/07/10 11:03:54;;;;;;;2.50;1.10;;;;;;;;;;5033404;28;20787;-60
2023/07/10 11:06:25;;;;;;;3.92;1.17;;;;;;;;;;5032096;28;20082;-61
2023/07/10 11:08:52;;;;;;;3.38;1.10;;;;;;;;;;5034110;28;20072;-62
2023/07/10 11:11:26;;;;;;;4.13;1.33;;;;;;;;;;5034435;28;20104;-61
2023/07/10 11:13:52;;;;;;;3.42;1.08;;;;;;;;;;5034946;28;20018;-62
2023/07/10 11:16:18;;;;;;;3.00;0.90;;;;;;;;;;5033012;28;20032;-62
2023/07/10 11:18:43;;;;;;;3.58;0.80;;;;;;;;;;5032733;28;20025;-61
2023/07/10 11:21:09;;;;;;;5.35;1.15;;;;;;;;;;5034252;28;20025;-61
2023/07/10 11:23:44;;;;;;;2.63;1.00;;;;;;;;;;5033509;28;20029;-61
2023/07/10 11:26:29;;;;;;;3.20;0.95;;;;;;;;;;5014540;28;20033;-61
2023/07/10 11:28:59;;;;;;;7.90;1.33;;;;;;;;;;5028455;28;20010;-60
2023/07/10 11:31:31;;;;;;;4.43;1.20;;;;;;;;;;5031416;28;20033;-61
2023/07/10 11:34:02;;;;;;;2.75;0.80;;;;;;;;;;5033475;28;20006;-61
2023/07/10 11:36:27;;;;;;;3.55;1.20;;;;;;;;;;5034041;28;20022;-62
2023/07/10 11:38:54;;;;;;;3.20;0.90;;;;;;;;;;5030412;28;20386;-62
2023/07/10 11:41:24;;;;;;;2.65;0.93;;;;;;;;;;5033854;28;20620;-63
2023/07/10 11:43:52;;;;;;;2.55;0.80;;;;;;;;;;5033408;28;20040;-63
2023/07/10 11:46:21;;;;;;;2.85;1.00;;;;;;;;;;5030670;28;20018;-62
2023/07/10 11:49:01;;;;;;;2.75;0.88;;;;;;;;;;5012149;28;20478;-62
2023/07/10 11:51:32;;;;;;;3.15;0.98;;;;;;;;;;5032866;28;20485;-63
2023/07/10 11:54:04;;;;;;;3.80;0.98;;;;;;;;;;5033645;28;20028;-63
2023/07/10 11:56:29;;;;;;;4.75;0.95;;;;;;;;;;5032662;28;20041;-62
2023/07/10 11:58:57;;;;;;;2.97;1.02;;;;;;;;;;5034039;28;20048;-62
2023/07/10 12:01:22;;;;;;;2.45;0.90;;;;;;;;;;5026999;28;20409;-62
2023/07/10 12:03:48;;;;;;;3.53;0.85;;;;;;;;;;5032670;28;20053;-62
2023/07/10 12:06:14;;;;;;;3.45;0.88;;;;;;;;;;5026844;28;20025;-61
2023/07/10 12:08:39;;;;;;;3.70;1.00;;;;;;;;;;5013596;28;20056;-62
2023/07/10 12:11:05;;;;;;;3.05;0.88;;;;;;;;;;5020539;28;20057;-63
2023/07/10 12:13:30;;;;;;;2.80;1.00;;;;;;;;;;5032764;28;20439;-64
2023/07/10 12:16:00;;;;;;;4.45;0.90;;;;;;;;;;5027128;28;20091;-63
2023/07/10 12:18:30;;;;;;;4.60;1.50;;;;;;;;;;5033654;28;20478;-63
2023/07/10 12:20:59;;;;;;;2.97;0.95;;;;;;;;;;5032430;28;20036;-63
2023/07/10 12:23:24;;;;;;;2.65;0.95;;;;;;;;;;5032346;28;20025;-63
2023/07/10 12:25:53;;;;;;;4.40;1.00;;;;;;;;;;5033652;28;20482;-63
2023/07/10 12:28:21;;;;;;;2.78;0.88;;;;;;;;;;5033569;28;20056;-64
2023/07/10 12:30:47;;;;;;;2.67;1.00;;;;;;;;;;5031511;28;20029;-64
2023/07/10 12:33:31;;;;;;;2.55;0.90;;;;;;;;;;5033800;28;20107;-63
2023/07/10 12:36:00;;;;;;;3.22;0.93;;;;;;;;;;5033707;28;20500;-63
2023/07/10 12:38:26;;;;;;;2.95;1.10;;;;;;;;;;5023592;28;20383;-64
2023/07/10 12:40:51;;;;;;;4.00;1.08;;;;;;;;;;5031630;28;20159;-64
2023/07/10 12:43:21;;;;;;;3.40;1.13;;;;;;;;;;5033409;28;20075;-64
2023/07/10 12:45:46;;;;;;;3.88;1.00;;;;;;;;;;5032717;28;20024;-64
2023/07/10 12:48:13;;;;;;;3.45;1.13;;;;;;;;;;5028947;28;20013;-63
2023/07/10 12:50:44;;;;;;;3.20;1.17;;;;;;;;;;5027157;28;20366;-63
2023/07/10 12:53:16;;;;;;;3.67;1.20;;;;;;;;;;5032567;28;20024;-64
2023/07/10 12:55:41;;;;;;;6.35;1.25;;;;;;;;;;5033031;28;20038;-63
2023/07/10 12:58:11;;;;;;;4.32;1.20;;;;;;;;;;5030877;28;20017;-64
2023/07/10 13:00:40;;;;;;;3.67;1.52;;;;;;;;;;5032269;28;20021;-65
2023/07/10 13:03:16;;;;;;;4.40;1.17;;;;;;;;;;5034889;28;20044;-65
2023/07/10 13:05:41;;;;;;;4.10;1.10;;;;;;;;;;5036674;28;20049;-65
2023/07/10 13:08:12;;;;;;;6.03;1.05;;;;;;;;;;5036768;28;20071;-64
2023/07/10 13:10:42;;;;;;;5.40;1.05;;;;;;;;;;5035819;28;20017;-64
2023/07/10 13:13:12;;;;;;;5.50;1.20;;;;;;;;;;5035488;28;20029;-64
2023/07/10 13:15:39;;;;;;;3.13;1.10;;;;;;;;;;5035435;28;20576;-64
2023/07/10 13:18:05;;;;;;;3.60;1.05;;;;;;;;;;5037129;28;20053;-66
2023/07/10 13:20:31;;;;;;;1.88;0.70;;;;;;;;;;5037092;28;20026;-65
2023/07/10 13:22:57;;;;;;;2.95;1.15;;;;;;;;;;5032882;28;20026;-65
2023/07/10 13:25:23;;;;;;;6.57;1.10;;;;;;;;;;5034091;28;20183;-66
2023/07/10 13:27:48;;;;;;;2.17;0.80;;;;;;;;;;5036857;28;20041;-66
2023/07/10 13:30:15;;;;;;;6.70;1.40;;;;;;;;;;5035760;28;20029;-67
2023/07/10 13:32:41;;;;;;;4.25;1.05;;;;;;;;;;5035166;28;20480;-66
2023/07/10 13:35:07;;;;;;;2.70;0.80;;;;;;;;;;5036795;28;20104;-66
2023/07/10 13:37:33;;;;;;;2.78;1.05;;;;;;;;;;5036568;28;20479;-66
2023/07/10 13:39:58;;;;;;;4.63;0.90;;;;;;;;;;5036197;28;20112;-66
2023/07/10 13:42:24;;;;;;;2.83;0.70;;;;;;;;;;5033734;28;20065;-67
2023/07/10 13:44:51;;;;;;;5.65;1.20;;;;;;;;;;5021201;28;20422;-68
2023/07/10 13:47:17;;;;;;;2.72;0.80;;;;;;;;;;5033957;28;20484;-66
2023/07/10 13:49:43;;;;;;;4.78;1.02;;;;;;;;;;5035373;28;20025;-67
2023/07/10 13:52:16;;;;;;;2.45;0.70;;;;;;;;;;5035257;28;20032;-64
2023/07/10 13:54:41;;;;;;;2.65;0.90;;;;;;;;;;5036029;28;20045;-65
2023/07/10 13:57:18;;;;;;;3.05;0.77;;;;;;;;;;5036093;28;20026;-65
2023/07/10 13:59:43;;;;;;;3.95;1.10;;;;;;;;;;5031317;28;20017;-65
2023/07/10 14:02:28;;;;;;;2.92;0.80;;;;;;;;;;5030214;28;20025;-65
2023/07/10 14:04:58;;;;;;;3.40;0.93;;;;;;;;;;5033593;28;20512;-63
2023/07/10 14:07:24;;;;;;;3.28;0.98;;;;;;;;;;5032172;28;20057;-63
2023/07/10 14:09:54;;;;;;;4.45;0.90;;;;;;;;;;5035795;28;20041;-65
2023/07/10 14:12:19;;;;;;;3.85;1.10;;;;;;;;;;5031079;28;20429;-64
2023/07/10 14:14:44;;;;;;;5.63;1.20;;;;;;;;;;5034987;28;20062;-64
2023/07/10 14:17:21;;;;;;;4.10;1.35;;;;;;;;;;5033937;28;20359;-63
2023/07/10 14:19:47;;;;;;;4.38;1.05;;;;;;;;;;5019732;28;20080;-65
2023/07/10 14:22:12;;;;;;;4.53;1.00;;;;;;;;;;5029386;28;20022;-64
2023/07/10 14:24:38;;;;;;;4.15;1.42;;;;;;;;;;5035320;28;20047;-64
2023/07/10 14:27:15;;;;;;;4.68;1.02;;;;;;;;;;5035745;28;20013;-64
2023/07/10 14:29:41;;;;;;;4.30;1.13;;;;;;;;;;5035204;28;20050;-63
2023/07/10 14:32:11;;;;;;;4.15;1.20;;;;;;;;;;5032200;28;20026;-63
2023/07/10 14:34:36;;;;;;;6.18;1.27;;;;;;;;;;5034621;28;20071;-64